Terminal Aerodrome Forecast
Issued by NWS

Home | Current Version | Previous Version | Text Only | Print | Product List | Glossary On
Versions: 1 2 3 4 5 6 7 8 9 10 11 12 13 14 15 16 17 18 19 20 21 22 23 24
000
FTUS46 KMFR 010558
TAFRBG
TAF
KRBG 010558Z 0106/0206 35002KT P6SM BKN200
     FM010900 00000KT 3SM BR SCT100 BKN120 OVC180
     FM011500 00000KT P6SM VCSH BKN050 OVC090
     FM011800 VRB02KT P6SM -SHRA FEW020 BKN035 OVC050
     FM012100 16005KT P6SM -SHRA BKN025 OVC040=

USA.gov is the U.S. government's official web portal to all federal, state and local government web resources and services.